Time,TemperatureF,DewpointF,PressureIn,WindDirection,WindDirectionDegrees,WindSpeedMPH,WindSpeedGustMPH,Humidity,HourlyPrecipIn,Conditions,Clouds,dailyrainin,SoftwareType,DateUTC
2013-06-20 00:01:00,70.9,58.5,30.10,ENE,67,3.0,3.0,65,0.00,RA,,0.00,WeatherDisplay:10.37,2013-06-20 04:01:00,
2013-06-20 00:02:00,70.8,58.4,30.10,ENE,67,3.5,3.5,65,0.00,RA,,0.00,WeatherDisplay:10.37,2013-06-20 04:02:00,
2013-06-20 00:04:00,70.8,58.4,30.10,ENE,67,3.5,3.5,65,0.00,RA,,0.00,WeatherDisplay:10.37,2013-06-20 04:04:00,
2013-06-20 00:07:00,70.7,58.4,30.10,ENE,67,3.5,3.5,65,0.00,RA,,0.00,WeatherDisplay:10.37,2013-06-20 04:07:00,
2013-06-20 00:12:00,70.5,58.6,30.10,ENE,67,3.0,3.0,66,0.00,CLR,,0.00,WeatherDisplay:10.37,2013-06-20 04:12:00,
2013-06-20 00:17:00,70.3,58.4,30.10,ENE,67,4.0,4.0,66,0.00,CLR,,0.00,WeatherDisplay:10.37,2013-06-20 04:17:00,
2013-06-20 00:22:00,70.1,58.2,30.11,ENE,67,3.5,3.5,66,0.00,CLR,,0.00,WeatherDisplay:10.37,2013-06-20 04:22:00,
2013-06-20 00:27:00,70.1,58.2,30.11,ENE,67,3.5,3.5,66,0.00,CLR,,0.00,WeatherDisplay:10.37,2013-06-20 04:27:00,
2013-06-20 00:32:00,70.0,58.1,30.11,ENE,67,3.5,3.5,66,0.00,CLR,,0.00,WeatherDisplay:10.37,2013-06-20 04:32:00,
2013-06-20 00:37:00,69.9,58.0,30.11,ENE,67,3.5,3.5,66,0.00,CLR,,0.00,WeatherDisplay:10.37,2013-06-20 04:37:00,
2013-06-20 00:42:00,69.8,58.3,30.11,ENE,67,3.5,3.5,67,0.00,CLR,,0.00,WeatherDisplay:10.37,2013-06-20 04:42:00,
2013-06-20 00:47:00,69.7,58.3,30.11,ENE,67,2.3,2.3,67,0.00,CLR,,0.00,WeatherDisplay:10.37,2013-06-20 04:47:00,
2013-06-20 00:52:00,69.5,58.1,30.11,ENE,67,3.5,3.5,67,0.00,CLR,,0.00,WeatherDisplay:10.37,2013-06-20 04:52:00,
2013-06-20 00:57:00,69.5,58.1,30.12,ENE,67,2.3,2.3,67,0.00,CLR,,0.00,WeatherDisplay:10.37,2013-06-20 04:57:00,
2013-06-20 01:02:00,69.4,58.0,30.12,ENE,67,3.0,3.0,67,0.00,CLR,,0.00,WeatherDisplay:10.37,2013-06-20 05:02:00,
2013-06-20 01:07:00,69.2,58.2,30.12,ENE,67,0.0,0.0,68,0.00,CLR,,0.00,WeatherDisplay:10.37,2013-06-20 05:07:00,
2013-06-20 01:12:00,69.0,58.0,30.12,ENE,67,0.0,0.0,68,0.00,CLR,,0.00,WeatherDisplay:10.37,2013-06-20 05:12:00,
2013-06-20 01:17:00,68.7,57.7,30.12,ENE,67,0.0,0.0,68,0.00,CLR,,0.00,WeatherDisplay:10.37,2013-06-20 05:17:00,
2013-06-20 01:22:00,68.5,57.9,30.12,ENE,67,0.0,0.0,69,0.00,CLR,,0.00,WeatherDisplay:10.37,2013-06-20 05:22:00,
2013-06-20 01:27:00,68.3,57.7,30.12,ENE,67,0.0,0.0,69,0.00,CLR,,0.00,WeatherDisplay:10.37,2013-06-20 05:27:00,
2013-06-20 01:32:00,68.0,57.8,30.12,ENE,67,0.0,0.0,70,0.00,CLR,,0.00,WeatherDisplay:10.37,2013-06-20 05:32:00,
2013-06-20 01:37:00,67.9,57.8,30.12,ENE,67,1.0,0.0,70,0.00,CLR,,0.00,WeatherDisplay:10.37,2013-06-20 05:37:00,
2013-06-20 01:42:00,68.0,57.4,30.12,ENE,67,1.1,1.1,69,0.00,CLR,,0.00,WeatherDisplay:10.37,2013-06-20 05:42:00,
2013-06-20 01:47:00,68.5,57.5,30.12,ENE,67,1.1,1.1,68,0.00,CLR,,0.00,WeatherDisplay:10.37,2013-06-20 05:47:00,
2013-06-20 01:52:00,68.9,57.1,30.12,ENE,67,2.3,2.3,66,0.00,CLR,,0.00,WeatherDisplay:10.37,2013-06-20 05:52:00,
2013-06-20 01:57:00,69.2,57.4,30.12,ENE,67,1.1,1.1,66,0.00,CLR,,0.00,WeatherDisplay:10.37,2013-06-20 05:57:00,
2013-06-20 02:02:00,69.3,57.5,30.12,ENE,67,2.3,2.3,66,0.00,CLR,,0.00,WeatherDisplay:10.37,2013-06-20 06:02:00,
2013-06-20 02:07:00,69.2,57.4,30.12,ENE,67,1.1,0.0,66,0.00,CLR,,0.00,WeatherDisplay:10.37,2013-06-20 06:07:00,
2013-06-20 02:12:00,69.1,57.3,30.11,ENE,67,2.3,2.3,66,0.00,CLR,,0.00,WeatherDisplay:10.37,2013-06-20 06:12:00,
2013-06-20 02:17:00,69.0,57.2,30.12,ENE,67,2.0,2.0,66,0.00,CLR,,0.00,WeatherDisplay:10.37,2013-06-20 06:17:00,
2013-06-20 02:22:00,69.0,57.2,30.11,ENE,67,1.1,1.1,66,0.00,CLR,,0.00,WeatherDisplay:10.37,2013-06-20 06:22:00,
2013-06-20 02:27:00,69.0,57.2,30.11,ENE,67,2.3,2.3,66,0.00,CLR,,0.00,WeatherDisplay:10.37,2013-06-20 06:27:00,
2013-06-20 02:32:00,68.9,57.1,30.11,ENE,67,1.1,1.1,66,0.00,CLR,,0.00,WeatherDisplay:10.37,2013-06-20 06:32:00,
2013-06-20 02:37:00,68.9,57.1,30.11,ENE,67,0.0,0.0,66,0.00,CLR,,0.00,WeatherDisplay:10.37,2013-06-20 06:37:00,
2013-06-20 02:42:00,68.8,57.0,30.11,ENE,67,0.0,0.0,66,0.00,CLR,,0.00,WeatherDisplay:10.37,2013-06-20 06:42:00,
2013-06-20 02:47:00,68.5,57.1,30.11,ENE,67,1.1,1.1,67,0.00,CLR,,0.00,WeatherDisplay:10.37,2013-06-20 06:47:00,
2013-06-20 02:52:00,68.5,57.1,30.11,ENE,67,3.0,3.0,67,0.00,CLR,,0.00,WeatherDisplay:10.37,2013-06-20 06:52:00,
2013-06-20 02:57:00,68.5,57.1,30.11,ENE,67,1.1,1.1,67,0.00,CLR,,0.00,WeatherDisplay:10.37,2013-06-20 06:57:00,
2013-06-20 03:02:00,68.5,57.5,30.11,ENE,67,0.0,0.0,68,0.00,CLR,,0.00,WeatherDisplay:10.37,2013-06-20 07:02:00,
2013-06-20 03:07:00,68.3,57.3,30.11,ENE,67,1.0,1.0,68,0.00,CLR,,0.00,WeatherDisplay:10.37,2013-06-20 07:07:00,
2013-06-20 03:12:00,68.1,57.1,30.11,ENE,67,2.3,0.0,68,0.00,CLR,,0.00,WeatherDisplay:10.37,2013-06-20 07:12:00,
2013-06-20 03:17:00,68.0,57.4,30.11,ENE,67,0.0,0.0,69,0.00,CLR,,0.00,WeatherDisplay:10.37,2013-06-20 07:17:00,
2013-06-20 03:22:00,67.8,57.3,30.11,ENE,67,2.3,0.0,69,0.00,CLR,,0.00,WeatherDisplay:10.37,2013-06-20 07:22:00,
2013-06-20 03:27:00,67.7,57.6,30.11,ENE,67,1.1,0.0,70,0.00,CLR,,0.00,WeatherDisplay:10.37,2013-06-20 07:27:00,
2013-06-20 03:32:00,67.6,57.5,30.11,ENE,67,0.0,0.0,70,0.00,CLR,,0.00,WeatherDisplay:10.37,2013-06-20 07:32:00,
2013-06-20 03:37:00,67.4,57.3,30.11,ENE,67,0.0,0.0,70,0.00,CLR,,0.00,WeatherDisplay:10.37,2013-06-20 07:37:00,
2013-06-20 03:42:00,67.1,57.4,30.11,ENE,67,0.0,0.0,71,0.00,CLR,,0.00,WeatherDisplay:10.37,2013-06-20 07:42:00,
2013-06-20 03:47:00,66.9,57.2,30.11,ENE,67,0.0,0.0,71,0.00,CLR,,0.00,WeatherDisplay:10.37,2013-06-20 07:47:00,
2013-06-20 03:52:00,66.8,57.5,30.11,ENE,67,0.0,0.0,72,0.00,CLR,,0.00,WeatherDisplay:10.37,2013-06-20 07:52:00,
2013-06-20 03:57:00,66.6,57.3,30.12,ENE,67,0.0,0.0,72,0.00,CLR,,0.00,WeatherDisplay:10.37,2013-06-20 07:57:00,
2013-06-20 04:02:00,66.4,57.5,30.12,ENE,67,0.0,0.0,73,0.00,CLR,,0.00,WeatherDisplay:10.37,2013-06-20 08:02:00,
2013-06-20 04:07:00,66.1,57.2,30.12,ENE,67,0.0,0.0,73,0.00,CLR,,0.00,WeatherDisplay:10.37,2013-06-20 08:07:00,
2013-06-20 04:12:00,65.9,57.4,30.12,ENE,67,0.0,0.0,74,0.00,CLR,,0.00,WeatherDisplay:10.37,2013-06-20 08:12:00,
2013-06-20 04:17:00,65.6,57.1,30.12,ENE,67,0.0,0.0,74,0.00,CLR,,0.00,WeatherDisplay:10.37,2013-06-20 08:17:00,
2013-06-20 04:22:00,65.3,57.2,30.12,ENE,67,0.0,0.0,75,0.00,CLR,,0.00,WeatherDisplay:10.37,2013-06-20 08:22:00,
2013-06-20 04:27:00,65.1,57.0,30.12,ENE,67,0.0,0.0,75,0.00,CLR,,0.00,WeatherDisplay:10.37,2013-06-20 08:27:00,
2013-06-20 04:32:00,64.9,57.2,30.12,ENE,67,0.0,0.0,76,0.00,CLR,,0.00,WeatherDisplay:10.37,2013-06-20 08:32:00,
2013-06-20 04:37:00,64.8,57.1,30.12,ENE,67,0.0,0.0,76,0.00,CLR,,0.00,WeatherDisplay:10.37,2013-06-20 08:37:00,
2013-06-20 04:42:00,64.7,57.3,30.12,ENE,67,2.0,2.0,77,0.00,CLR,,0.00,WeatherDisplay:10.37,2013-06-20 08:42:00,
2013-06-20 04:47:00,64.6,57.2,30.12,ENE,67,0.0,0.0,77,0.00,CLR,,0.00,WeatherDisplay:10.37,2013-06-20 08:47:00,
2013-06-20 04:52:00,64.6,57.2,30.13,ENE,67,0.0,0.0,77,0.00,CLR,,0.00,WeatherDisplay:10.37,2013-06-20 08:52:00,
2013-06-20 04:57:00,64.5,57.1,30.12,ENE,67,0.0,0.0,77,0.00,CLR,,0.00,WeatherDisplay:10.37,2013-06-20 08:57:00,
2013-06-20 05:02:00,64.4,57.4,30.13,ENE,67,0.0,0.0,78,0.00,CLR,,0.00,WeatherDisplay:10.37,2013-06-20 09:02:00,
2013-06-20 05:07:00,64.2,57.2,30.13,ENE,67,0.0,0.0,78,0.00,CLR,,0.00,WeatherDisplay:10.37,2013-06-20 09:07:00,
2013-06-20 05:12:00,64.0,57.0,30.13,ENE,67,0.0,0.0,78,0.00,CLR,,0.00,WeatherDisplay:10.37,2013-06-20 09:12:00,
2013-06-20 05:17:00,63.8,57.2,30.13,ENE,67,0.0,0.0,79,0.00,CLR,,0.00,WeatherDisplay:10.37,2013-06-20 09:17:00,
2013-06-20 05:22:00,63.6,57.0,30.13,ENE,67,0.0,0.0,79,0.00,CLR,,0.00,WeatherDisplay:10.37,2013-06-20 09:22:00,
2013-06-20 05:27:00,63.5,56.9,30.14,ENE,67,0.0,0.0,79,0.00,CLR,,0.00,WeatherDisplay:10.37,2013-06-20 09:27:00,
2013-06-20 05:32:00,63.3,57.0,30.14,ENE,67,0.0,0.0,80,0.00,CLR,,0.00,WeatherDisplay:10.37,2013-06-20 09:32:00,
2013-06-20 05:37:00,63.1,56.8,30.14,ENE,67,0.0,0.0,80,0.00,CLR,,0.00,WeatherDisplay:10.37,2013-06-20 09:37:00,
2013-06-20 05:42:00,63.0,56.7,30.14,ENE,67,0.0,0.0,80,0.00,CLR,,0.00,WeatherDisplay:10.37,2013-06-20 09:42:00,
2013-06-20 05:47:00,62.9,57.0,30.14,ENE,67,0.0,0.0,81,0.00,CLR,,0.00,WeatherDisplay:10.37,2013-06-20 09:47:00,
2013-06-20 05:52:00,62.7,56.8,30.14,ENE,67,0.0,0.0,81,0.00,CLR,,0.00,WeatherDisplay:10.37,2013-06-20 09:52:00,
2013-06-20 05:57:00,62.6,56.7,30.14,ENE,67,0.0,0.0,81,0.00,CLR,,0.00,WeatherDisplay:10.37,2013-06-20 09:57:00,
2013-06-20 06:02:00,62.5,56.9,30.14,ENE,67,0.0,0.0,82,0.00,CLR,,0.00,WeatherDisplay:10.37,2013-06-20 10:02:00,
2013-06-20 06:07:00,62.5,56.9,30.14,ENE,67,0.0,0.0,82,0.00,CLR,,0.00,WeatherDisplay:10.37,2013-06-20 10:07:00,
2013-06-20 06:12:00,62.6,57.0,30.14,ENE,67,0.0,0.0,82,0.00,CLR,,0.00,WeatherDisplay:10.37,2013-06-20 10:12:00,
2013-06-20 06:17:00,62.5,56.9,30.15,ENE,67,0.0,0.0,82,0.00,CLR,,0.00,WeatherDisplay:10.37,2013-06-20 10:17:00,
2013-06-20 06:22:00,62.5,57.3,30.15,ENE,67,0.0,0.0,83,0.00,CLR,,0.00,WeatherDisplay:10.37,2013-06-20 10:22:00,
2013-06-20 06:27:00,62.6,57.4,30.15,ENE,67,0.0,0.0,83,0.00,CLR,,0.00,WeatherDisplay:10.37,2013-06-20 10:27:00,
2013-06-20 06:32:00,62.7,57.5,30.15,ENE,67,0.0,0.0,83,0.00,CLR,,0.00,WeatherDisplay:10.37,2013-06-20 10:32:00,
2013-06-20 06:37:00,63.0,57.4,30.15,ENE,67,0.0,0.0,82,0.00,CLR,,0.00,WeatherDisplay:10.37,2013-06-20 10:37:00,
2013-06-20 06:42:00,63.2,57.6,30.15,ENE,67,0.0,0.0,82,0.00,CLR,,0.00,WeatherDisplay:10.37,2013-06-20 10:42:00,
2013-06-20 06:47:00,63.3,57.7,30.15,ENE,67,0.0,0.0,82,0.00,CLR,,0.00,WeatherDisplay:10.37,2013-06-20 10:47:00,
2013-06-20 06:52:00,63.4,57.5,30.15,ENE,67,0.0,0.0,81,0.00,CLR,,0.00,WeatherDisplay:10.37,2013-06-20 10:52:00,
2013-06-20 06:57:00,63.6,57.7,30.16,ENE,67,0.0,0.0,81,0.00,CLR,,0.00,WeatherDisplay:10.37,2013-06-20 10:57:00,
2013-06-20 07:02:00,63.7,57.8,30.16,ENE,67,0.0,0.0,81,0.00,CLR,,0.00,WeatherDisplay:10.37,2013-06-20 11:02:00,
2013-06-20 07:07:00,63.8,57.9,30.16,ENE,67,0.0,0.0,81,0.00,CLR,,0.00,WeatherDisplay:10.37,2013-06-20 11:07:00,
2013-06-20 07:12:00,64.0,58.1,30.16,ENE,67,0.0,0.0,81,0.00,CLR,,0.00,WeatherDisplay:10.37,2013-06-20 11:12:00,
2013-06-20 07:17:00,64.2,58.2,30.16,ENE,67,0.0,0.0,81,0.00,CLR,,0.00,WeatherDisplay:10.37,2013-06-20 11:17:00,
2013-06-20 07:22:00,64.5,58.2,30.16,ENE,67,0.0,0.0,80,0.00,CLR,,0.00,WeatherDisplay:10.37,2013-06-20 11:22:00,
2013-06-20 07:27:00,64.7,58.4,30.16,ENE,67,0.0,0.0,80,0.00,CLR,,0.00,WeatherDisplay:10.37,2013-06-20 11:27:00,
2013-06-20 07:32:00,64.9,58.6,30.17,ENE,67,0.0,0.0,80,0.00,CLR,,0.00,WeatherDisplay:10.37,2013-06-20 11:32:00,
2013-06-20 07:37:00,65.3,58.6,30.17,ENE,67,0.0,0.0,79,0.00,CLR,,0.00,WeatherDisplay:10.37,2013-06-20 11:37:00,
2013-06-20 07:42:00,65.7,59.0,30.17,ENE,68,1.1,1.1,79,0.00,CLR,,0.00,WeatherDisplay:10.37,2013-06-20 11:42:00,
2013-06-20 07:47:00,66.1,59.0,30.17,ENE,67,0.0,0.0,78,0.00,CLR,,0.00,WeatherDisplay:10.37,2013-06-20 11:47:00,
2013-06-20 07:52:00,66.4,59.3,30.17,ENE,68,0.0,0.0,78,0.00,CLR,,0.00,WeatherDisplay:10.37,2013-06-20 11:52:00,
2013-06-20 07:57:00,66.9,59.5,30.17,ENE,67,0.0,0.0,77,0.00,CLR,,0.00,WeatherDisplay:10.37,2013-06-20 11:57:00,
2013-06-20 08:02:00,67.3,59.8,30.17,ENE,68,0.0,0.0,77,0.00,CLR,,0.00,WeatherDisplay:10.37,2013-06-20 12:02:00,
2013-06-20 08:07:00,67.9,60.1,30.17,ENE,67,0.0,0.0,76,0.00,CLR,,0.00,WeatherDisplay:10.37,2013-06-20 12:07:00,
2013-06-20 08:12:00,68.3,60.4,30.17,ENE,68,1.1,0.0,76,0.00,CLR,,0.00,WeatherDisplay:10.37,2013-06-20 12:12:00,
2013-06-20 08:17:00,68.7,60.8,30.17,ENE,68,1.1,1.1,76,0.00,CLR,,0.00,WeatherDisplay:10.37,2013-06-20 12:17:00,
2013-06-20 08:22:00,69.1,61.2,30.17,East,86,1.1,1.1,76,0.00,CLR,,0.00,WeatherDisplay:10.37,2013-06-20 12:22:00,
2013-06-20 08:27:00,69.5,61.2,30.17,East,88,2.3,2.3,75,0.00,CLR,,0.00,WeatherDisplay:10.37,2013-06-20 12:27:00,
2013-06-20 08:32:00,70.0,61.3,30.18,East,87,2.0,2.0,74,0.00,CLR,,0.00,WeatherDisplay:10.37,2013-06-20 12:32:00,
2013-06-20 08:37:00,70.4,61.7,30.18,East,88,1.1,0.0,74,0.00,CLR,,0.00,WeatherDisplay:10.37,2013-06-20 12:37:00,
2013-06-20 08:42:00,70.7,62.0,30.18,East,88,0.0,0.0,74,0.00,CLR,,0.00,WeatherDisplay:10.37,2013-06-20 12:42:00,
2013-06-20 08:47:00,71.1,62.0,30.18,East,89,1.1,1.1,73,0.00,CLR,,0.00,WeatherDisplay:10.37,2013-06-20 12:47:00,
2013-06-20 08:52:00,71.8,62.7,30.18,East,89,1.1,0.0,73,0.00,CLR,,0.00,WeatherDisplay:10.37,2013-06-20 12:52:00,
2013-06-20 08:57:00,72.4,62.9,30.18,East,89,1.1,1.1,72,0.00,CLR,,0.00,WeatherDisplay:10.37,2013-06-20 12:57:00,
2013-06-20 09:02:00,73.2,63.2,30.18,East,90,1.0,0.0,71,0.00,CLR,,0.00,WeatherDisplay:10.37,2013-06-20 13:02:00,
2013-06-20 09:07:00,73.9,63.5,30.18,East,91,1.1,0.0,70,0.00,CLR,,0.00,WeatherDisplay:10.37,2013-06-20 13:07:00,
2013-06-20 09:12:00,74.7,63.4,30.18,East,92,1.1,1.1,68,0.00,CLR,,0.00,WeatherDisplay:10.37,2013-06-20 13:12:00,
2013-06-20 09:17:00,75.3,64.0,30.18,East,91,1.1,1.1,68,0.00,CLR,,0.00,WeatherDisplay:10.37,2013-06-20 13:17:00,
2013-06-20 09:22:00,75.8,63.6,30.18,East,95,3.0,3.0,66,0.00,CLR,,0.00,WeatherDisplay:10.37,2013-06-20 13:22:00,
2013-06-20 09:27:00,76.0,63.8,30.18,East,95,0.0,0.0,66,0.00,CLR,,0.00,WeatherDisplay:10.37,2013-06-20 13:27:00,
2013-06-20 09:32:00,76.2,64.0,30.18,East,96,1.1,1.1,66,0.00,CLR,,0.00,WeatherDisplay:10.37,2013-06-20 13:32:00,
2013-06-20 09:37:00,76.6,64.4,30.18,East,99,4.0,4.0,66,0.00,CLR,,0.00,WeatherDisplay:10.37,2013-06-20 13:37:00,
2013-06-20 09:42:00,76.7,63.6,30.18,ESE,118,5.0,5.0,64,0.00,CLR,,0.00,WeatherDisplay:10.37,2013-06-20 13:42:00,
2013-06-20 09:47:00,76.7,63.6,30.18,ESE,122,5.0,5.0,64,0.00,CLR,,0.00,WeatherDisplay:10.37,2013-06-20 13:47:00,
2013-06-20 09:52:00,76.6,63.1,30.18,SSE,147,6.0,6.0,63,0.00,CLR,,0.00,WeatherDisplay:10.37,2013-06-20 13:52:00,
2013-06-20 09:57:00,76.6,63.5,30.19,South,170,5.0,5.0,64,0.00,CLR,,0.00,WeatherDisplay:10.37,2013-06-20 13:57:00,
2013-06-20 10:02:00,76.8,63.7,30.19,South,174,2.0,2.0,64,0.00,CLR,,0.00,WeatherDisplay:10.37,2013-06-20 14:02:00,
2013-06-20 10:07:00,77.3,63.7,30.19,South,181,1.1,1.1,63,0.00,CLR,,0.00,WeatherDisplay:10.37,2013-06-20 14:07:00,
2013-06-20 10:12:00,77.7,63.6,30.19,South,180,2.3,2.3,62,0.00,CLR,,0.00,WeatherDisplay:10.37,2013-06-20 14:12:00,
2013-06-20 10:17:00,78.0,63.9,30.19,South,181,0.0,0.0,62,0.00,CLR,,0.00,WeatherDisplay:10.37,2013-06-20 14:17:00,
2013-06-20 10:22:00,78.5,63.5,30.19,South,185,2.3,2.3,60,0.00,CLR,,0.00,WeatherDisplay:10.37,2013-06-20 14:22:00,
2013-06-20 10:27:00,78.7,63.6,30.18,South,185,4.0,4.0,60,0.00,CLR,,0.00,WeatherDisplay:10.37,2013-06-20 14:27:00,
2013-06-20 10:32:00,79.0,63.9,30.19,SSW,193,3.5,3.5,60,0.00,CLR,,0.00,WeatherDisplay:10.37,2013-06-20 14:32:00,
2013-06-20 10:37:00,79.4,63.8,30.18,South,191,3.0,3.0,59,0.00,CLR,,0.00,WeatherDisplay:10.37,2013-06-20 14:37:00,
2013-06-20 10:42:00,79.7,64.1,30.19,South,189,1.1,0.0,59,0.00,CLR,,0.00,WeatherDisplay:10.37,2013-06-20 14:42:00,
2013-06-20 10:47:00,80.0,63.9,30.18,South,187,7.0,7.0,58,0.00,CLR,,0.00,WeatherDisplay:10.37,2013-06-20 14:47:00,
2013-06-20 10:52:00,79.9,62.8,30.18,South,180,4.0,4.0,56,0.00,CLR,,0.00,WeatherDisplay:10.37,2013-06-20 14:52:00,
2013-06-20 10:57:00,79.7,62.6,30.18,South,180,2.3,2.3,56,0.00,CLR,,0.00,WeatherDisplay:10.37,2013-06-20 14:57:00,
2013-06-20 11:02:00,80.1,63.5,30.19,South,182,1.1,1.1,57,0.00,CLR,,0.00,WeatherDisplay:10.37,2013-06-20 15:02:00,
2013-06-20 11:07:00,80.4,62.8,30.19,South,175,3.5,3.5,55,0.00,CLR,,0.00,WeatherDisplay:10.37,2013-06-20 15:07:00,
2013-06-20 11:12:00,80.5,63.4,30.19,South,175,3.5,3.5,56,0.00,CLR,,0.00,WeatherDisplay:10.37,2013-06-20 15:12:00,
2013-06-20 11:17:00,80.7,62.0,30.19,SSE,161,3.5,3.5,53,0.00,CLR,,0.00,WeatherDisplay:10.37,2013-06-20 15:17:00,
2013-06-20 11:22:00,80.3,62.7,30.19,SE,137,2.0,2.0,55,0.00,CLR,,0.00,WeatherDisplay:10.37,2013-06-20 15:22:00,
2013-06-20 11:27:00,80.7,62.5,30.19,SE,141,4.0,4.0,54,0.00,CLR,,0.00,WeatherDisplay:10.37,2013-06-20 15:27:00,
2013-06-20 11:32:00,80.9,62.7,30.19,SE,141,1.1,1.1,54,0.00,CLR,,0.00,WeatherDisplay:10.37,2013-06-20 15:32:00,
2013-06-20 11:37:00,80.7,62.5,30.19,SE,139,1.1,0.0,54,0.00,CLR,,0.00,WeatherDisplay:10.37,2013-06-20 15:37:00,
2013-06-20 11:42:00,80.4,63.3,30.19,SE,139,0.0,0.0,56,0.00,CLR,,0.00,WeatherDisplay:10.37,2013-06-20 15:42:00,
2013-06-20 11:47:00,80.4,63.8,30.19,SE,139,0.0,0.0,57,0.00,CLR,,0.00,WeatherDisplay:10.37,2013-06-20 15:47:00,
2013-06-20 11:52:00,80.5,62.8,30.19,SE,139,2.3,2.3,55,0.00,CLR,,0.00,WeatherDisplay:10.37,2013-06-20 15:52:00,
2013-06-20 11:57:00,80.5,62.8,30.19,SE,139,3.5,0.0,55,0.00,CLR,,0.00,WeatherDisplay:10.37,2013-06-20 15:57:00,
2013-06-20 12:02:00,80.8,63.6,30.19,SSE,151,5.8,5.8,56,0.00,CLR,,0.00,WeatherDisplay:10.37,2013-06-20 16:02:00,
2013-06-20 12:07:00,80.7,63.0,30.19,SSE,151,5.0,5.0,55,0.00,CLR,,0.00,WeatherDisplay:10.37,2013-06-20 16:07:00,
2013-06-20 12:12:00,81.0,64.8,30.19,SSE,151,1.1,0.0,58,0.00,CLR,,0.00,WeatherDisplay:10.37,2013-06-20 16:12:00,
2013-06-20 12:17:00,81.3,64.1,30.19,SSE,154,4.0,4.0,56,0.00,CLR,,0.00,WeatherDisplay:10.37,2013-06-20 16:17:00,
2013-06-20 12:22:00,82.1,64.3,30.19,SSE,154,4.0,4.0,55,0.00,CLR,,0.00,WeatherDisplay:10.37,2013-06-20 16:22:00,
2013-06-20 12:27:00,81.9,64.7,30.18,SSE,153,0.0,0.0,56,0.00,CLR,,0.00,WeatherDisplay:10.37,2013-06-20 16:27:00,
2013-06-20 12:32:00,82.3,64.5,30.19,SSE,157,2.3,2.3,55,0.00,CLR,,0.00,WeatherDisplay:10.37,2013-06-20 16:32:00,
2013-06-20 12:37:00,82.7,63.8,30.19,SSE,157,2.3,0.0,53,0.00,CLR,,0.00,WeatherDisplay:10.37,2013-06-20 16:37:00,
2013-06-20 12:42:00,83.1,64.7,30.19,SSE,162,4.0,4.0,54,0.00,CLR,,0.00,WeatherDisplay:10.37,2013-06-20 16:42:00,
2013-06-20 12:47:00,83.8,64.3,30.19,SSE,162,2.3,2.3,52,0.00,CLR,,0.00,WeatherDisplay:10.37,2013-06-20 16:47:00,
2013-06-20 12:52:00,84.4,64.9,30.18,SSE,162,1.0,0.0,52,0.00,CLR,,0.00,WeatherDisplay:10.37,2013-06-20 16:52:00,
2013-06-20 12:57:00,84.2,63.5,30.18,SSE,167,8.1,8.1,50,0.00,CLR,,0.00,WeatherDisplay:10.37,2013-06-20 16:57:00,
2013-06-20 13:02:00,83.7,62.5,30.18,SSE,167,1.1,0.0,49,0.00,CLR,,0.00,WeatherDisplay:10.37,2013-06-20 17:02:00,
2013-06-20 13:07:00,83.5,62.9,30.18,SSE,166,1.1,0.0,50,0.00,CLR,,0.00,WeatherDisplay:10.37,2013-06-20 17:07:00,
2013-06-20 13:12:00,83.6,63.6,30.18,SSW,192,3.5,3.5,51,0.00,CLR,,0.00,WeatherDisplay:10.37,2013-06-20 17:12:00,
2013-06-20 13:17:00,84.0,63.9,30.18,South,191,1.1,0.0,51,0.00,CLR,,0.00,WeatherDisplay:10.37,2013-06-20 17:17:00,
2013-06-20 13:22:00,84.1,62.9,30.18,SSW,192,3.5,3.5,49,0.00,CLR,,0.00,WeatherDisplay:10.37,2013-06-20 17:22:00,
2013-06-20 13:27:00,83.8,62.6,30.18,South,175,6.0,6.0,49,0.00,CLR,,0.00,WeatherDisplay:10.37,2013-06-20 17:27:00,
2013-06-20 13:32:00,82.7,62.7,30.18,South,176,0.0,0.0,51,0.00,CLR,,0.00,WeatherDisplay:10.37,2013-06-20 17:32:00,
2013-06-20 13:37:00,82.0,62.6,30.18,South,175,1.1,0.0,52,0.00,CLR,,0.00,WeatherDisplay:10.37,2013-06-20 17:37:00,
2013-06-20 13:42:00,82.1,63.3,30.18,South,176,5.0,5.0,53,0.00,CLR,,0.00,WeatherDisplay:10.37,2013-06-20 17:42:00,
2013-06-20 13:47:00,82.3,62.9,30.17,South,175,1.1,1.1,52,0.00,CLR,,0.00,WeatherDisplay:10.37,2013-06-20 17:47:00,
2013-06-20 13:52:00,82.3,63.5,30.17,South,176,1.0,1.0,53,0.00,CLR,,0.00,WeatherDisplay:10.37,2013-06-20 17:52:00,
2013-06-20 13:57:00,81.9,62.0,30.17,SSE,167,1.1,0.0,51,0.00,CLR,,0.00,WeatherDisplay:10.37,2013-06-20 17:57:00,
2013-06-20 14:02:00,82.2,63.4,30.17,SSE,167,1.1,1.1,53,0.00,CLR,,0.00,WeatherDisplay:10.37,2013-06-20 18:02:00,
2013-06-20 14:07:00,82.3,62.9,30.17,SSE,167,0.0,0.0,52,0.00,CLR,,0.00,WeatherDisplay:10.37,2013-06-20 18:07:00,
2013-06-20 14:12:00,82.7,63.3,30.17,SSE,167,1.1,0.0,52,0.00,CLR,,0.00,WeatherDisplay:10.37,2013-06-20 18:12:00,
2013-06-20 14:17:00,83.6,61.8,30.17,SSE,167,2.3,2.3,48,0.00,CLR,,0.00,WeatherDisplay:10.37,2013-06-20 18:17:00,
2013-06-20 14:22:00,84.2,62.4,30.17,SSW,193,5.0,5.0,48,0.00,CLR,,0.00,WeatherDisplay:10.37,2013-06-20 18:22:00,
2013-06-20 14:27:00,84.0,62.2,30.17,SSW,193,1.1,0.0,48,0.00,CLR,,0.00,WeatherDisplay:10.37,2013-06-20 18:27:00,
2013-06-20 14:32:00,84.3,63.1,30.17,SSW,192,1.1,0.0,49,0.00,CLR,,0.00,WeatherDisplay:10.37,2013-06-20 18:32:00,
2013-06-20 14:37:00,84.9,62.4,30.17,South,191,3.5,3.5,47,0.00,CLR,,0.00,WeatherDisplay:10.37,2013-06-20 18:37:00,
2013-06-20 14:42:00,84.2,63.5,30.17,South,190,1.1,1.1,50,0.00,CLR,,0.00,WeatherDisplay:10.37,2013-06-20 18:42:00,
2013-06-20 14:47:00,84.2,62.4,30.16,South,191,2.3,2.3,48,0.00,CLR,,0.00,WeatherDisplay:10.37,2013-06-20 18:47:00,
2013-06-20 14:52:00,84.0,61.6,30.16,South,191,1.1,0.0,47,0.00,CLR,,0.00,WeatherDisplay:10.37,2013-06-20 18:52:00,
2013-06-20 14:57:00,85.1,63.8,30.16,South,191,1.0,0.0,49,0.00,CLR,,0.00,WeatherDisplay:10.37,2013-06-20 18:57:00,
2013-06-20 15:02:00,85.6,63.7,30.16,South,176,2.3,2.3,48,0.00,FEW,,0.00,WeatherDisplay:10.37,2013-06-20 19:02:00,
2013-06-20 15:07:00,86.1,62.9,30.16,SSE,153,7.0,7.0,46,0.00,FEW,,0.00,WeatherDisplay:10.37,2013-06-20 19:07:00,
2013-06-20 15:12:00,86.3,63.7,30.16,North,2,6.0,6.0,47,0.00,FEW,,0.00,WeatherDisplay:10.37,2013-06-20 19:12:00,
2013-06-20 15:17:00,85.4,62.9,30.16,NE,40,2.3,2.3,47,0.00,FEW,,0.00,WeatherDisplay:10.37,2013-06-20 19:17:00,
2013-06-20 15:22:00,84.7,63.4,30.16,NE,40,3.0,3.0,49,0.00,FEW,,0.00,WeatherDisplay:10.37,2013-06-20 19:22:00,
2013-06-20 15:27:00,83.2,62.1,30.15,ENE,62,10.4,10.4,49,0.00,FEW,,0.00,WeatherDisplay:10.37,2013-06-20 19:27:00,
2013-06-20 15:32:00,83.0,62.4,30.16,East,89,2.3,2.3,50,0.00,FEW,,0.00,WeatherDisplay:10.37,2013-06-20 19:32:00,
2013-06-20 15:37:00,83.5,64.0,30.15,East,89,1.1,1.1,52,0.00,FEW,,0.00,WeatherDisplay:10.37,2013-06-20 19:37:00,
2013-06-20 15:42:00,83.6,61.2,30.16,East,86,3.5,3.5,47,0.00,FEW,,0.00,WeatherDisplay:10.37,2013-06-20 19:42:00,
2013-06-20 15:47:00,83.5,61.7,30.15,East,97,4.0,4.0,48,0.00,FEW,,0.00,WeatherDisplay:10.37,2013-06-20 19:47:00,
2013-06-20 15:52:00,83.3,61.0,30.15,East,97,4.0,4.0,47,0.00,FEW,,0.00,WeatherDisplay:10.37,2013-06-20 19:52:00,
2013-06-20 15:57:00,83.1,61.4,30.15,East,97,2.3,0.0,48,0.00,FEW,,0.00,WeatherDisplay:10.37,2013-06-20 19:57:00,
2013-06-20 16:02:00,83.2,63.2,30.15,East,97,1.1,0.0,51,0.00,SCT,,0.00,WeatherDisplay:10.37,2013-06-20 20:02:00,
2013-06-20 16:07:00,83.6,64.1,30.15,East,97,0.0,0.0,52,0.00,SCT,,0.00,WeatherDisplay:10.37,2013-06-20 20:07:00,
2013-06-20 16:12:00,84.5,61.4,30.15,East,97,4.0,4.0,46,0.00,SCT,,0.00,WeatherDisplay:10.37,2013-06-20 20:12:00,
2013-06-20 16:17:00,84.6,60.3,30.15,East,97,1.1,1.1,44,0.00,SCT,,0.00,WeatherDisplay:10.37,2013-06-20 20:17:00,
2013-06-20 16:22:00,84.9,60.6,30.15,East,97,2.3,2.3,44,0.00,SCT,,0.00,WeatherDisplay:10.37,2013-06-20 20:22:00,
2013-06-20 16:27:00,85.6,61.2,30.15,ESE,105,3.5,3.5,44,0.00,SCT,,0.00,WeatherDisplay:10.37,2013-06-20 20:27:00,
2013-06-20 16:32:00,86.1,61.6,30.15,ESE,105,1.1,0.0,44,0.00,SCT,,0.00,WeatherDisplay:10.37,2013-06-20 20:32:00,
2013-06-20 16:37:00,87.1,60.5,30.15,ESE,105,3.5,3.5,41,0.00,SCT,,0.00,WeatherDisplay:10.37,2013-06-20 20:37:00,
2013-06-20 16:42:00,86.6,60.8,30.15,ESE,105,1.1,1.1,42,0.00,SCT,,0.00,WeatherDisplay:10.37,2013-06-20 20:42:00,
2013-06-20 16:47:00,86.5,61.3,30.14,ESE,105,1.1,1.1,43,0.00,SCT,,0.00,WeatherDisplay:10.37,2013-06-20 20:47:00,
2013-06-20 16:52:00,86.7,60.9,30.15,ESE,106,1.1,0.0,42,0.00,SCT,,0.00,WeatherDisplay:10.37,2013-06-20 20:52:00,
2013-06-20 16:57:00,87.1,62.5,30.15,ESE,107,1.1,0.0,44,0.00,SCT,,0.00,WeatherDisplay:10.37,2013-06-20 20:57:00,
2013-06-20 17:02:00,88.4,63.1,30.15,ESE,107,3.5,3.5,43,0.00,SCT,,0.00,WeatherDisplay:10.37,2013-06-20 21:02:00,
2013-06-20 17:07:00,88.9,62.8,30.15,ESE,107,2.3,2.3,42,0.00,SCT,,0.00,WeatherDisplay:10.37,2013-06-20 21:07:00,
2013-06-20 17:12:00,89.1,63.0,30.15,ESE,106,1.1,0.0,42,0.00,SCT,,0.00,WeatherDisplay:10.37,2013-06-20 21:12:00,
2013-06-20 17:17:00,89.1,62.3,30.15,ESE,107,1.0,1.0,41,0.00,SCT,,0.00,WeatherDisplay:10.37,2013-06-20 21:17:00,
2013-06-20 17:22:00,89.9,62.3,30.15,ESE,107,1.1,1.1,40,0.00,SCT,,0.00,WeatherDisplay:10.37,2013-06-20 21:22:00,
2013-06-20 17:27:00,90.0,61.0,30.14,ESE,105,1.1,1.1,38,0.00,SCT,,0.00,WeatherDisplay:10.37,2013-06-20 21:27:00,
2013-06-20 17:32:00,89.5,60.5,30.14,ENE,75,3.0,3.0,38,0.00,SCT,,0.00,WeatherDisplay:10.37,2013-06-20 21:32:00,
2013-06-20 17:37:00,88.8,59.9,30.13,ENE,73,4.0,4.0,38,0.00,SCT,,0.00,WeatherDisplay:10.37,2013-06-20 21:37:00,
2013-06-20 17:42:00,88.6,61.9,30.13,ENE,75,3.5,3.5,41,0.00,SCT,,0.00,WeatherDisplay:10.37,2013-06-20 21:42:00,
2013-06-20 17:47:00,88.1,60.7,30.13,ENE,75,5.0,5.0,40,0.00,SCT,,0.00,WeatherDisplay:10.37,2013-06-20 21:47:00,
2013-06-20 17:52:00,87.5,60.2,30.13,ENE,75,5.0,5.0,40,0.00,SCT,,0.00,WeatherDisplay:10.37,2013-06-20 21:52:00,
2013-06-20 17:57:00,86.9,60.4,30.13,ENE,75,3.5,3.5,41,0.00,SCT,,0.00,WeatherDisplay:10.37,2013-06-20 21:57:00,
2013-06-20 18:02:00,87.3,60.7,30.12,ENE,76,2.0,2.0,41,0.00,SCT,,0.00,WeatherDisplay:10.37,2013-06-20 22:02:00,
2013-06-20 18:07:00,87.6,61.0,30.12,ENE,75,1.1,0.0,41,0.00,SCT,,0.00,WeatherDisplay:10.37,2013-06-20 22:07:00,
2013-06-20 18:12:00,88.2,61.5,30.12,East,97,4.0,4.0,41,0.00,SCT,,0.00,WeatherDisplay:10.37,2013-06-20 22:12:00,
2013-06-20 18:17:00,88.5,61.1,30.12,East,89,3.0,3.0,40,0.00,SCT,,0.00,WeatherDisplay:10.37,2013-06-20 22:17:00,
2013-06-20 18:22:00,87.8,61.9,30.13,ENE,77,2.3,2.3,42,0.00,SCT,,0.00,WeatherDisplay:10.37,2013-06-20 22:22:00,
2013-06-20 18:27:00,88.1,62.8,30.13,East,81,3.0,3.0,43,0.00,SCT,,0.00,WeatherDisplay:10.37,2013-06-20 22:27:00,
2013-06-20 18:32:00,87.6,62.3,30.13,East,80,3.0,3.0,43,0.00,SCT,,0.00,WeatherDisplay:10.37,2013-06-20 22:32:00,
2013-06-20 18:37:00,87.4,61.5,30.13,ENE,71,6.0,6.0,42,0.00,SCT,,0.00,WeatherDisplay:10.37,2013-06-20 22:37:00,
2013-06-20 18:42:00,86.5,61.3,30.13,ENE,71,3.0,3.0,43,0.00,SCT,,0.00,WeatherDisplay:10.37,2013-06-20 22:42:00,
2013-06-20 18:47:00,86.2,61.7,30.13,East,80,1.1,1.1,44,0.00,SCT,,0.00,WeatherDisplay:10.37,2013-06-20 22:47:00,
2013-06-20 18:52:00,86.5,62.0,30.13,East,86,2.0,2.0,44,0.00,SCT,,0.00,WeatherDisplay:10.37,2013-06-20 22:52:00,
2013-06-20 18:58:00,87.1,61.9,30.12,East,99,2.3,2.3,43,0.00,SCT,,0.00,WeatherDisplay:10.37,2013-06-20 22:58:00,
2013-06-20 19:03:00,87.1,62.5,30.12,East,99,2.3,2.3,44,0.00,SCT,,0.00,WeatherDisplay:10.37,2013-06-20 23:03:00,
2013-06-20 19:08:00,86.7,61.5,30.12,East,97,5.8,5.8,43,0.00,SCT,,0.00,WeatherDisplay:10.37,2013-06-20 23:08:00,
2013-06-20 19:13:00,85.6,61.2,30.13,East,92,1.1,1.1,44,0.00,SCT,,0.00,WeatherDisplay:10.37,2013-06-20 23:13:00,
2013-06-20 19:18:00,85.4,62.3,30.13,ESE,118,2.3,2.3,46,0.00,SCT,,0.00,WeatherDisplay:10.37,2013-06-20 23:18:00,
2013-06-20 19:23:00,85.2,61.5,30.12,ESE,118,1.1,1.1,45,0.00,SCT,,0.00,WeatherDisplay:10.37,2013-06-20 23:23:00,
2013-06-20 19:28:00,85.0,61.9,30.13,ESE,117,1.1,1.1,46,0.00,SCT,,0.00,WeatherDisplay:10.37,2013-06-20 23:28:00,
2013-06-20 19:33:00,84.5,61.4,30.13,ESE,116,4.6,4.6,46,0.00,SCT,,0.00,WeatherDisplay:10.37,2013-06-20 23:33:00,
2013-06-20 19:38:00,83.8,61.4,30.13,ENE,71,1.1,1.1,47,0.00,SCT,,0.00,WeatherDisplay:10.37,2013-06-20 23:38:00,
2013-06-20 19:43:00,83.4,61.1,30.12,ENE,72,1.1,1.1,47,0.00,SCT,,0.00,WeatherDisplay:10.37,2013-06-20 23:43:00,
2013-06-20 19:48:00,83.6,61.2,30.13,ENE,72,1.1,0.0,47,0.00,SCT,,0.00,WeatherDisplay:10.37,2013-06-20 23:48:00,
2013-06-20 19:53:00,83.8,61.4,30.13,ENE,72,2.3,2.3,47,0.00,SCT,,0.00,WeatherDisplay:10.37,2013-06-20 23:53:00,
2013-06-20 19:58:00,83.6,60.6,30.13,ENE,72,1.1,1.1,46,0.00,SCT,,0.00,WeatherDisplay:10.37,2013-06-20 23:58:00,
2013-06-20 20:03:00,83.2,61.5,30.13,ENE,74,2.3,2.3,48,0.00,FEW,,0.00,WeatherDisplay:10.37,2013-06-21 00:03:00,
2013-06-20 20:08:00,82.9,60.6,30.13,ENE,74,1.0,0.0,47,0.00,FEW,,0.00,WeatherDisplay:10.37,2013-06-21 00:08:00,
2013-06-20 20:13:00,82.7,61.0,30.14,ENE,74,0.0,0.0,48,0.00,FEW,,0.00,WeatherDisplay:10.37,2013-06-21 00:13:00,
2013-06-20 20:18:00,82.4,60.7,30.14,ENE,74,0.0,0.0,48,0.00,FEW,,0.00,WeatherDisplay:10.37,2013-06-21 00:18:00,
2013-06-20 20:23:00,82.0,60.4,30.14,ENE,74,1.1,0.0,48,0.00,FEW,,0.00,WeatherDisplay:10.37,2013-06-21 00:23:00,
2013-06-20 20:28:00,81.9,60.3,30.14,ENE,74,0.0,0.0,48,0.00,FEW,,0.00,WeatherDisplay:10.37,2013-06-21 00:28:00,
2013-06-20 20:33:00,81.7,60.1,30.14,ENE,74,3.5,3.5,48,0.00,FEW,,0.00,WeatherDisplay:10.37,2013-06-21 00:33:00,
2013-06-20 20:38:00,81.5,60.5,30.14,ENE,74,1.1,0.0,49,0.00,FEW,,0.00,WeatherDisplay:10.37,2013-06-21 00:38:00,
2013-06-20 20:43:00,81.3,60.3,30.14,ENE,74,1.1,0.0,49,0.00,FEW,,0.00,WeatherDisplay:10.37,2013-06-21 00:43:00,
2013-06-20 20:48:00,81.1,60.1,30.14,ENE,74,0.0,0.0,49,0.00,FEW,,0.00,WeatherDisplay:10.37,2013-06-21 00:48:00,
2013-06-20 20:53:00,80.9,59.9,30.14,ENE,74,3.5,3.5,49,0.00,FEW,,0.00,WeatherDisplay:10.37,2013-06-21 00:53:00,
2013-06-20 20:58:00,80.6,60.2,30.14,ENE,74,2.3,0.0,50,0.00,FEW,,0.00,WeatherDisplay:10.37,2013-06-21 00:58:00,
2013-06-20 21:03:00,80.4,60.1,30.14,ENE,74,0.0,0.0,50,0.00,BKN,,0.00,WeatherDisplay:10.37,2013-06-21 01:03:00,
2013-06-20 21:08:00,80.1,59.8,30.14,ENE,74,1.1,0.0,50,0.00,BKN,,0.00,WeatherDisplay:10.37,2013-06-21 01:08:00,
2013-06-20 21:13:00,79.8,60.1,30.14,ENE,74,0.0,0.0,51,0.00,BKN,,0.00,WeatherDisplay:10.37,2013-06-21 01:13:00,
2013-06-20 21:18:00,79.5,59.8,30.14,ENE,74,0.0,0.0,51,0.00,BKN,,0.00,WeatherDisplay:10.37,2013-06-21 01:18:00,
2013-06-20 21:23:00,79.3,60.1,30.15,ENE,74,1.1,1.1,52,0.00,BKN,,0.00,WeatherDisplay:10.37,2013-06-21 01:23:00,
2013-06-20 21:28:00,79.1,60.0,30.15,ENE,74,0.0,0.0,52,0.00,BKN,,0.00,WeatherDisplay:10.37,2013-06-21 01:28:00,
2013-06-20 21:33:00,78.8,59.7,30.15,ENE,74,0.0,0.0,52,0.00,BKN,,0.00,WeatherDisplay:10.37,2013-06-21 01:33:00,
2013-06-20 21:38:00,78.7,60.1,30.15,ENE,74,0.0,0.0,53,0.00,BKN,,0.00,WeatherDisplay:10.37,2013-06-21 01:38:00,
2013-06-20 21:43:00,78.4,60.4,30.15,ENE,74,0.0,0.0,54,0.00,BKN,,0.00,WeatherDisplay:10.37,2013-06-21 01:43:00,
2013-06-20 21:48:00,78.1,60.1,30.15,ENE,74,0.0,0.0,54,0.00,BKN,,0.00,WeatherDisplay:10.37,2013-06-21 01:48:00,
2013-06-20 21:53:00,77.8,60.3,30.15,ENE,74,0.0,0.0,55,0.00,BKN,,0.00,WeatherDisplay:10.37,2013-06-21 01:53:00,
2013-06-20 21:58:00,77.6,60.2,30.15,ENE,74,0.0,0.0,55,0.00,BKN,,0.00,WeatherDisplay:10.37,2013-06-21 01:58:00,
2013-06-20 22:03:00,77.3,60.4,30.15,ENE,74,0.0,0.0,56,0.00,CLR,,0.00,WeatherDisplay:10.37,2013-06-21 02:03:00,
2013-06-20 22:08:00,77.1,60.7,30.15,ENE,74,1.1,0.0,57,0.00,CLR,,0.00,WeatherDisplay:10.37,2013-06-21 02:08:00,
2013-06-20 22:13:00,76.7,60.3,30.15,ENE,74,0.0,0.0,57,0.00,CLR,,0.00,WeatherDisplay:10.37,2013-06-21 02:13:00,
2013-06-20 22:18:00,76.6,60.7,30.15,ENE,74,0.0,0.0,58,0.00,CLR,,0.00,WeatherDisplay:10.37,2013-06-21 02:18:00,
2013-06-20 22:23:00,76.4,60.5,30.15,ENE,74,1.1,0.0,58,0.00,CLR,,0.00,WeatherDisplay:10.37,2013-06-21 02:23:00,
2013-06-20 22:28:00,76.2,60.3,30.15,ENE,74,1.1,0.0,58,0.00,CLR,,0.00,WeatherDisplay:10.37,2013-06-21 02:28:00,
2013-06-20 22:33:00,76.0,60.6,30.15,ENE,74,0.0,0.0,59,0.00,CLR,,0.00,WeatherDisplay:10.37,2013-06-21 02:33:00,
2013-06-20 22:38:00,75.8,60.4,30.16,ENE,74,0.0,0.0,59,0.00,CLR,,0.00,WeatherDisplay:10.37,2013-06-21 02:38:00,
2013-06-20 22:43:00,75.7,60.4,30.16,ENE,74,0.0,0.0,59,0.00,CLR,,0.00,WeatherDisplay:10.37,2013-06-21 02:43:00,
2013-06-20 22:48:00,75.5,60.6,30.16,ENE,74,0.0,0.0,60,0.00,CLR,,0.00,WeatherDisplay:10.37,2013-06-21 02:48:00,
2013-06-20 22:53:00,75.5,60.6,30.16,ENE,74,0.0,0.0,60,0.00,CLR,,0.00,WeatherDisplay:10.37,2013-06-21 02:53:00,
2013-06-20 22:58:00,75.3,60.5,30.16,ENE,74,0.0,0.0,60,0.00,CLR,,0.00,WeatherDisplay:10.37,2013-06-21 02:58:00,
2013-06-20 23:03:00,75.1,60.7,30.16,ENE,74,0.0,0.0,61,0.00,CLR,,0.00,WeatherDisplay:10.37,2013-06-21 03:03:00,
2013-06-20 23:08:00,74.9,60.5,30.16,ENE,74,0.0,0.0,61,0.00,CLR,,0.00,WeatherDisplay:10.37,2013-06-21 03:08:00,
2013-06-20 23:13:00,74.7,60.4,30.16,ENE,74,0.0,0.0,61,0.00,CLR,,0.00,WeatherDisplay:10.37,2013-06-21 03:13:00,
2013-06-20 23:18:00,74.5,60.6,30.16,ENE,74,0.0,0.0,62,0.00,CLR,,0.00,WeatherDisplay:10.37,2013-06-21 03:18:00,
2013-06-20 23:23:00,74.3,60.4,30.16,ENE,74,0.0,0.0,62,0.00,CLR,,0.00,WeatherDisplay:10.37,2013-06-21 03:23:00,
2013-06-20 23:28:00,74.1,60.2,30.16,ENE,74,0.0,0.0,62,0.00,CLR,,0.00,WeatherDisplay:10.37,2013-06-21 03:28:00,
2013-06-20 23:33:00,74.0,60.2,30.16,ENE,74,1.0,0.0,62,0.00,CLR,,0.00,WeatherDisplay:10.37,2013-06-21 03:33:00,
2013-06-20 23:38:00,73.9,60.1,30.16,ENE,74,0.0,0.0,62,0.00,CLR,,0.00,WeatherDisplay:10.37,2013-06-21 03:38:00,
2013-06-20 23:43:00,73.8,60.0,30.15,ENE,74,0.0,0.0,62,0.00,CLR,,0.00,WeatherDisplay:10.37,2013-06-21 03:43:00,
2013-06-20 23:48:00,73.7,59.9,30.15,ENE,74,0.0,0.0,62,0.00,CLR,,0.00,WeatherDisplay:10.37,2013-06-21 03:48:00,
2013-06-20 23:53:00,73.6,60.2,30.15,ENE,74,2.0,2.0,63,0.00,CLR,,0.00,WeatherDisplay:10.37,2013-06-21 03:53:00,
2013-06-20 23:58:00,73.6,59.8,30.15,ENE,74,0.0,0.0,62,0.00,CLR,,0.00,WeatherDisplay:10.37,2013-06-21 03:58:00,